sensor_id;sensor_type;location;lat;lon;timestamp;pressure;altitude;pressure_sealevel;temperature;humidity
46724;BME280;32463;48.298;11.620;2023-12-22T00:02:28;94838.69;;;2.15;100.00
46724;BME280;32463;48.298;11.620;2023-12-22T00:05:15;94845.53;;;1.96;100.00
46724;BME280;32463;48.298;11.620;2023-12-22T00:08:02;94858.78;;;1.82;100.00
46724;BME280;32463;48.298;11.620;2023-12-22T00:10:49;94876.84;;;1.71;100.00
46724;BME280;32463;48.298;11.620;2023-12-22T00:13:36;94838.22;;;1.47;100.00
46724;BME280;32463;48.298;11.620;2023-12-22T00:16:22;94843.69;;;1.05;100.00
46724;BME280;32463;48.298;11.620;2023-12-22T00:19:09;94844.75;;;1.12;100.00
46724;BME280;32463;48.298;11.620;2023-12-22T00:21:56;94860.06;;;1.22;100.00
46724;BME280;32463;48.298;11.620;2023-12-22T00:24:43;94882.06;;;1.23;100.00
46724;BME280;32463;48.298;11.620;2023-12-22T00:27:30;94877.41;;;1.18;100.00
46724;BME280;32463;48.298;11.620;2023-12-22T00:30:17;94871.56;;;1.35;100.00
46724;BME280;32463;48.298;11.620;2023-12-22T00:33:04;94843.16;;;1.21;100.00
46724;BME280;32463;48.298;11.620;2023-12-22T00:35:51;94835.31;;;1.22;100.00
46724;BME280;32463;48.298;11.620;2023-12-22T00:38:38;94842.59;;;1.17;100.00
46724;BME280;32463;48.298;11.620;2023-12-22T00:41:25;94841.00;;;1.16;100.00
46724;BME280;32463;48.298;11.620;2023-12-22T00:44:11;94840.13;;;1.35;100.00
46724;BME280;32463;48.298;11.620;2023-12-22T00:46:58;94856.38;;;1.44;100.00
46724;BME280;32463;48.298;11.620;2023-12-22T00:49:45;94862.16;;;1.46;100.00
46724;BME280;32463;48.298;11.620;2023-12-22T00:52:32;94876.19;;;1.59;100.00
46724;BME280;32463;48.298;11.620;2023-12-22T00:55:18;94864.94;;;1.52;100.00
46724;BME280;32463;48.298;11.620;2023-12-22T00:58:06;94873.13;;;1.56;100.00
46724;BME280;32463;48.298;11.620;2023-12-22T01:00:53;94878.44;;;1.72;100.00
46724;BME280;32463;48.298;11.620;2023-12-22T01:03:40;94880.88;;;1.74;100.00
46724;BME280;32463;48.298;11.620;2023-12-22T01:06:27;94867.84;;;1.94;100.00
46724;BME280;32463;48.298;11.620;2023-12-22T01:09:13;94875.13;;;1.89;100.00
46724;BME280;32463;48.298;11.620;2023-12-22T01:12:00;94888.44;;;2.20;100.00
46724;BME280;32463;48.298;11.620;2023-12-22T01:14:49;94865.22;;;2.14;100.00
46724;BME280;32463;48.298;11.620;2023-12-22T01:17:37;94868.50;;;2.24;100.00
46724;BME280;32463;48.298;11.620;2023-12-22T01:20:24;94888.66;;;2.09;100.00
46724;BME280;32463;48.298;11.620;2023-12-22T01:23:10;94874.03;;;2.01;100.00
46724;BME280;32463;48.298;11.620;2023-12-22T01:25:57;94891.25;;;1.99;100.00
46724;BME280;32463;48.298;11.620;2023-12-22T01:28:44;94896.06;;;2.02;100.00
46724;BME280;32463;48.298;11.620;2023-12-22T01:31:31;94898.25;;;2.25;100.00
46724;BME280;32463;48.298;11.620;2023-12-22T01:34:17;94894.34;;;2.21;100.00
46724;BME280;32463;48.298;11.620;2023-12-22T01:37:04;94887.34;;;2.23;100.00
46724;BME280;32463;48.298;11.620;2023-12-22T01:39:51;94894.31;;;2.30;100.00
46724;BME280;32463;48.298;11.620;2023-12-22T01:42:39;94902.78;;;2.31;100.00
46724;BME280;32463;48.298;11.620;2023-12-22T01:45:26;94893.03;;;2.17;100.00
46724;BME280;32463;48.298;11.620;2023-12-22T01:48:13;94888.09;;;2.33;100.00
46724;BME280;32463;48.298;11.620;2023-12-22T01:51:01;94894.53;;;2.37;100.00
46724;BME280;32463;48.298;11.620;2023-12-22T01:53:48;94889.16;;;2.13;100.00
46724;BME280;32463;48.298;11.620;2023-12-22T01:56:35;94891.13;;;2.19;100.00
46724;BME280;32463;48.298;11.620;2023-12-22T01:59:22;94883.78;;;2.33;100.00
46724;BME280;32463;48.298;11.620;2023-12-22T02:02:09;94889.53;;;2.18;100.00
46724;BME280;32463;48.298;11.620;2023-12-22T02:04:57;94899.81;;;2.08;100.00
46724;BME280;32463;48.298;11.620;2023-12-22T02:07:45;94888.91;;;2.33;100.00
46724;BME280;32463;48.298;11.620;2023-12-22T02:10:32;94893.41;;;2.22;100.00
46724;BME280;32463;48.298;11.620;2023-12-22T02:13:19;94904.59;;;2.21;100.00
46724;BME280;32463;48.298;11.620;2023-12-22T02:19:43;94928.81;;;2.17;100.00
46724;BME280;32463;48.298;11.620;2023-12-22T02:22:31;94937.81;;;1.93;100.00
46724;BME280;32463;48.298;11.620;2023-12-22T02:25:18;94940.19;;;1.58;100.00
46724;BME280;32463;48.298;11.620;2023-12-22T02:28:10;94921.56;;;1.28;100.00
46724;BME280;32463;48.298;11.620;2023-12-22T02:31:20;94910.31;;;1.02;100.00
46724;BME280;32463;48.298;11.620;2023-12-22T02:34:12;94916.91;;;1.14;100.00
46724;BME280;32463;48.298;11.620;2023-12-22T02:37:00;94895.41;;;1.07;100.00
46724;BME280;32463;48.298;11.620;2023-12-22T02:39:46;94893.38;;;1.01;100.00
46724;BME280;32463;48.298;11.620;2023-12-22T02:42:34;94912.19;;;1.10;100.00
46724;BME280;32463;48.298;11.620;2023-12-22T02:45:22;94905.19;;;0.92;100.00
46724;BME280;32463;48.298;11.620;2023-12-22T02:48:09;94909.38;;;0.93;100.00
46724;BME280;32463;48.298;11.620;2023-12-22T02:50:56;94887.22;;;0.75;100.00
46724;BME280;32463;48.298;11.620;2023-12-22T02:53:43;94887.50;;;0.91;100.00
46724;BME280;32463;48.298;11.620;2023-12-22T02:56:30;94888.16;;;0.93;100.00
46724;BME280;32463;48.298;11.620;2023-12-22T02:59:16;94893.94;;;0.95;100.00
46724;BME280;32463;48.298;11.620;2023-12-22T03:02:03;94881.31;;;0.93;100.00
46724;BME280;32463;48.298;11.620;2023-12-22T03:04:50;94874.06;;;0.98;100.00
46724;BME280;32463;48.298;11.620;2023-12-22T03:07:37;94860.06;;;1.12;100.00
46724;BME280;32463;48.298;11.620;2023-12-22T03:10:24;94842.03;;;1.23;100.00
46724;BME280;32463;48.298;11.620;2023-12-22T03:13:11;94848.75;;;1.24;100.00
46724;BME280;32463;48.298;11.620;2023-12-22T03:15:57;94856.19;;;1.08;100.00
46724;BME280;32463;48.298;11.620;2023-12-22T03:18:44;94857.88;;;1.37;100.00
46724;BME280;32463;48.298;11.620;2023-12-22T03:21:31;94858.25;;;1.42;100.00
46724;BME280;32463;48.298;11.620;2023-12-22T03:24:18;94872.28;;;1.65;100.00
46724;BME280;32463;48.298;11.620;2023-12-22T03:27:06;94868.19;;;1.45;100.00
46724;BME280;32463;48.298;11.620;2023-12-22T03:29:53;94871.03;;;1.32;100.00
46724;BME280;32463;48.298;11.620;2023-12-22T03:32:40;94864.06;;;1.34;100.00
46724;BME280;32463;48.298;11.620;2023-12-22T03:35:26;94866.34;;;1.27;100.00
46724;BME280;32463;48.298;11.620;2023-12-22T03:38:13;94852.25;;;1.23;100.00
46724;BME280;32463;48.298;11.620;2023-12-22T03:41:00;94842.81;;;1.33;100.00
46724;BME280;32463;48.298;11.620;2023-12-22T03:43:47;94824.34;;;1.12;100.00
46724;BME280;32463;48.298;11.620;2023-12-22T03:46:33;94830.22;;;1.22;100.00
46724;BME280;32463;48.298;11.620;2023-12-22T03:49:20;94828.84;;;1.28;100.00
46724;BME280;32463;48.298;11.620;2023-12-22T03:52:07;94829.13;;;1.34;100.00
46724;BME280;32463;48.298;11.620;2023-12-22T03:54:54;94830.44;;;1.39;100.00
46724;BME280;32463;48.298;11.620;2023-12-22T03:57:40;94836.06;;;1.52;100.00
46724;BME280;32463;48.298;11.620;2023-12-22T04:00:27;94849.94;;;1.40;100.00
46724;BME280;32463;48.298;11.620;2023-12-22T04:03:14;94868.34;;;1.43;100.00
46724;BME280;32463;48.298;11.620;2023-12-22T04:06:02;94921.22;;;1.70;100.00
46724;BME280;32463;48.298;11.620;2023-12-22T04:08:49;94898.63;;;1.65;100.00
46724;BME280;32463;48.298;11.620;2023-12-22T04:11:36;94843.63;;;1.34;100.00
46724;BME280;32463;48.298;11.620;2023-12-22T04:14:23;94838.25;;;1.27;100.00
46724;BME280;32463;48.298;11.620;2023-12-22T04:17:10;94839.84;;;1.38;100.00
46724;BME280;32463;48.298;11.620;2023-12-22T04:19:57;94825.19;;;1.77;100.00
46724;BME280;32463;48.298;11.620;2023-12-22T04:22:44;94810.50;;;2.07;100.00
46724;BME280;32463;48.298;11.620;2023-12-22T04:25:30;94810.38;;;2.26;100.00
46724;BME280;32463;48.298;11.620;2023-12-22T04:28:17;94801.03;;;2.34;100.00
46724;BME280;32463;48.298;11.620;2023-12-22T04:31:04;94789.47;;;2.48;100.00
46724;BME280;32463;48.298;11.620;2023-12-22T04:33:51;94793.69;;;2.57;100.00
46724;BME280;32463;48.298;11.620;2023-12-22T04:36:38;94794.34;;;2.59;100.00
46724;BME280;32463;48.298;11.620;2023-12-22T04:39:25;94797.88;;;2.58;100.00
46724;BME280;32463;48.298;11.620;2023-12-22T04:42:12;94795.25;;;2.68;100.00
46724;BME280;32463;48.298;11.620;2023-12-22T04:44:59;94792.13;;;2.82;100.00
46724;BME280;32463;48.298;11.620;2023-12-22T04:47:45;94786.94;;;2.92;100.00
46724;BME280;32463;48.298;11.620;2023-12-22T04:50:32;94796.97;;;3.11;100.00
46724;BME280;32463;48.298;11.620;2023-12-22T04:53:19;94788.72;;;3.25;100.00
46724;BME280;32463;48.298;11.620;2023-12-22T04:56:06;94776.78;;;3.34;100.00
46724;BME280;32463;48.298;11.620;2023-12-22T04:58:53;94784.31;;;3.35;100.00
46724;BME280;32463;48.298;11.620;2023-12-22T05:01:39;94766.78;;;3.57;100.00
46724;BME280;32463;48.298;11.620;2023-12-22T05:04:28;94766.53;;;3.76;100.00
46724;BME280;32463;48.298;11.620;2023-12-22T05:07:15;94770.44;;;3.88;100.00
46724;BME280;32463;48.298;11.620;2023-12-22T05:10:02;94765.63;;;4.01;100.00
46724;BME280;32463;48.298;11.620;2023-12-22T05:12:48;94778.84;;;4.23;100.00
46724;BME280;32463;48.298;11.620;2023-12-22T05:15:35;94792.63;;;4.22;100.00
46724;BME280;32463;48.298;11.620;2023-12-22T05:18:23;94811.53;;;4.29;100.00
46724;BME280;32463;48.298;11.620;2023-12-22T05:21:12;94838.16;;;4.28;100.00
46724;BME280;32463;48.298;11.620;2023-12-22T05:24:00;94851.97;;;4.43;100.00
46724;BME280;32463;48.298;11.620;2023-12-22T05:26:48;94887.28;;;4.49;100.00
46724;BME280;32463;48.298;11.620;2023-12-22T05:29:35;94905.03;;;3.92;100.00
46724;BME280;32463;48.298;11.620;2023-12-22T05:32:21;94918.84;;;3.22;100.00
46724;BME280;32463;48.298;11.620;2023-12-22T05:35:08;94927.75;;;2.64;100.00
46724;BME280;32463;48.298;11.620;2023-12-22T05:37:56;94917.47;;;2.29;100.00
46724;BME280;32463;48.298;11.620;2023-12-22T05:40:43;94926.50;;;2.23;100.00
46724;BME280;32463;48.298;11.620;2023-12-22T05:43:30;94908.63;;;1.86;100.00
46724;BME280;32463;48.298;11.620;2023-12-22T05:46:17;94898.34;;;1.78;100.00
46724;BME280;32463;48.298;11.620;2023-12-22T05:49:04;94919.81;;;1.85;100.00
46724;BME280;32463;48.298;11.620;2023-12-22T05:51:51;94936.31;;;1.91;100.00
46724;BME280;32463;48.298;11.620;2023-12-22T05:54:38;94923.25;;;2.03;100.00
46724;BME280;32463;48.298;11.620;2023-12-22T05:57:25;94922.22;;;1.87;100.00
46724;BME280;32463;48.298;11.620;2023-12-22T06:00:12;94919.50;;;1.98;100.00
46724;BME280;32463;48.298;11.620;2023-12-22T06:03:01;94921.13;;;1.89;100.00
46724;BME280;32463;48.298;11.620;2023-12-22T06:05:48;94928.13;;;1.87;100.00
46724;BME280;32463;48.298;11.620;2023-12-22T06:08:35;94936.97;;;2.02;100.00
46724;BME280;32463;48.298;11.620;2023-12-22T06:11:21;94935.91;;;1.95;100.00
46724;BME280;32463;48.298;11.620;2023-12-22T06:14:08;94956.88;;;1.99;100.00
46724;BME280;32463;48.298;11.620;2023-12-22T06:16:55;94957.13;;;2.06;100.00
46724;BME280;32463;48.298;11.620;2023-12-22T06:19:43;94946.56;;;2.18;100.00
46724;BME280;32463;48.298;11.620;2023-12-22T06:22:30;94963.97;;;2.42;100.00
46724;BME280;32463;48.298;11.620;2023-12-22T06:25:17;94950.53;;;2.40;100.00
46724;BME280;32463;48.298;11.620;2023-12-22T06:28:05;94929.00;;;2.60;100.00
46724;BME280;32463;48.298;11.620;2023-12-22T06:30:52;94927.72;;;2.47;100.00
46724;BME280;32463;48.298;11.620;2023-12-22T06:33:39;94925.09;;;2.56;100.00
46724;BME280;32463;48.298;11.620;2023-12-22T06:36:26;94909.63;;;2.76;100.00
46724;BME280;32463;48.298;11.620;2023-12-22T06:39:13;94911.84;;;2.70;100.00
46724;BME280;32463;48.298;11.620;2023-12-22T06:42:00;94928.66;;;2.91;100.00
46724;BME280;32463;48.298;11.620;2023-12-22T06:44:46;94912.41;;;3.00;100.00
46724;BME280;32463;48.298;11.620;2023-12-22T06:47:33;94911.19;;;3.04;100.00
46724;BME280;32463;48.298;11.620;2023-12-22T06:50:20;94903.81;;;3.27;100.00
46724;BME280;32463;48.298;11.620;2023-12-22T06:53:07;94904.69;;;3.35;100.00
46724;BME280;32463;48.298;11.620;2023-12-22T06:55:53;94915.28;;;3.41;100.00
46724;BME280;32463;48.298;11.620;2023-12-22T06:58:40;94921.63;;;3.54;100.00
46724;BME280;32463;48.298;11.620;2023-12-22T07:04:15;94907.75;;;3.39;100.00
46724;BME280;32463;48.298;11.620;2023-12-22T07:07:02;94906.94;;;3.38;100.00
46724;BME280;32463;48.298;11.620;2023-12-22T07:09:49;94918.19;;;3.46;100.00
46724;BME280;32463;48.298;11.620;2023-12-22T07:12:35;94924.53;;;3.59;100.00
46724;BME280;32463;48.298;11.620;2023-12-22T07:15:22;94932.72;;;3.89;100.00
46724;BME280;32463;48.298;11.620;2023-12-22T07:18:09;94949.13;;;4.04;100.00
46724;BME280;32463;48.298;11.620;2023-12-22T07:20:57;94970.84;;;4.18;100.00
46724;BME280;32463;48.298;11.620;2023-12-22T07:23:44;95006.56;;;4.11;100.00
46724;BME280;32463;48.298;11.620;2023-12-22T07:26:30;95007.28;;;3.95;100.00
46724;BME280;32463;48.298;11.620;2023-12-22T07:29:17;95013.78;;;3.46;100.00
46724;BME280;32463;48.298;11.620;2023-12-22T07:32:04;95026.06;;;3.07;100.00
46724;BME280;32463;48.298;11.620;2023-12-22T07:34:51;95055.50;;;3.03;100.00
46724;BME280;32463;48.298;11.620;2023-12-22T07:37:38;95070.25;;;2.82;100.00
46724;BME280;32463;48.298;11.620;2023-12-22T07:40:25;95045.72;;;2.61;100.00
46724;BME280;32463;48.298;11.620;2023-12-22T07:43:12;95042.75;;;2.66;100.00
46724;BME280;32463;48.298;11.620;2023-12-22T07:45:59;95050.31;;;2.58;100.00
46724;BME280;32463;48.298;11.620;2023-12-22T07:48:46;95073.47;;;2.56;100.00
46724;BME280;32463;48.298;11.620;2023-12-22T07:51:33;95067.53;;;2.65;100.00
46724;BME280;32463;48.298;11.620;2023-12-22T07:54:20;95065.13;;;2.54;100.00
46724;BME280;32463;48.298;11.620;2023-12-22T07:57:06;95079.69;;;2.54;100.00
46724;BME280;32463;48.298;11.620;2023-12-22T07:59:53;95121.69;;;2.51;100.00
46724;BME280;32463;48.298;11.620;2023-12-22T08:02:41;95086.44;;;2.45;100.00
46724;BME280;32463;48.298;11.620;2023-12-22T08:05:28;95084.25;;;2.50;100.00
46724;BME280;32463;48.298;11.620;2023-12-22T08:08:15;95092.88;;;2.59;100.00
46724;BME280;32463;48.298;11.620;2023-12-22T08:11:02;95089.38;;;2.50;100.00
46724;BME280;32463;48.298;11.620;2023-12-22T08:13:48;95083.16;;;2.62;100.00
46724;BME280;32463;48.298;11.620;2023-12-22T08:16:35;95090.16;;;2.60;100.00
46724;BME280;32463;48.298;11.620;2023-12-22T08:19:22;95083.06;;;2.82;100.00
46724;BME280;32463;48.298;11.620;2023-12-22T08:22:10;95100.53;;;2.96;100.00
46724;BME280;32463;48.298;11.620;2023-12-22T08:24:58;95103.69;;;3.08;100.00
46724;BME280;32463;48.298;11.620;2023-12-22T08:27:45;95082.97;;;3.28;100.00
46724;BME280;32463;48.298;11.620;2023-12-22T08:30:32;95101.94;;;3.35;100.00
46724;BME280;32463;48.298;11.620;2023-12-22T08:33:19;95120.19;;;3.41;100.00
46724;BME280;32463;48.298;11.620;2023-12-22T08:36:06;95114.91;;;3.24;100.00
46724;BME280;32463;48.298;11.620;2023-12-22T08:38:53;95125.59;;;3.37;100.00
46724;BME280;32463;48.298;11.620;2023-12-22T08:41:40;95101.75;;;3.19;100.00
46724;BME280;32463;48.298;11.620;2023-12-22T08:44:27;95106.38;;;3.33;100.00
46724;BME280;32463;48.298;11.620;2023-12-22T08:47:14;95102.41;;;3.39;100.00
46724;BME280;32463;48.298;11.620;2023-12-22T08:50:01;95122.84;;;3.49;100.00
46724;BME280;32463;48.298;11.620;2023-12-22T08:52:49;95137.41;;;3.30;100.00
46724;BME280;32463;48.298;11.620;2023-12-22T08:55:36;95141.75;;;3.48;100.00
46724;BME280;32463;48.298;11.620;2023-12-22T08:58:23;95127.22;;;3.38;100.00
46724;BME280;32463;48.298;11.620;2023-12-22T09:01:17;95133.38;;;3.46;100.00
46724;BME280;32463;48.298;11.620;2023-12-22T09:04:04;95153.03;;;3.55;100.00
46724;BME280;32463;48.298;11.620;2023-12-22T09:06:51;95144.59;;;3.45;100.00
46724;BME280;32463;48.298;11.620;2023-12-22T09:09:38;95143.06;;;3.52;100.00
46724;BME280;32463;48.298;11.620;2023-12-22T09:12:25;95140.66;;;3.68;100.00
46724;BME280;32463;48.298;11.620;2023-12-22T09:15:12;95130.09;;;3.71;100.00
46724;BME280;32463;48.298;11.620;2023-12-22T09:17:59;95128.28;;;3.81;100.00
46724;BME280;32463;48.298;11.620;2023-12-22T09:20:46;95098.09;;;4.11;100.00
46724;BME280;32463;48.298;11.620;2023-12-22T09:23:33;95101.81;;;4.42;100.00
46724;BME280;32463;48.298;11.620;2023-12-22T09:26:20;95099.03;;;4.61;100.00
46724;BME280;32463;48.298;11.620;2023-12-22T09:29:06;95100.13;;;4.85;100.00
46724;BME280;32463;48.298;11.620;2023-12-22T09:31:53;95108.78;;;4.84;100.00
46724;BME280;32463;48.298;11.620;2023-12-22T09:34:40;95085.75;;;5.00;100.00
46724;BME280;32463;48.298;11.620;2023-12-22T09:37:27;95088.34;;;5.08;100.00
46724;BME280;32463;48.298;11.620;2023-12-22T09:40:13;95081.22;;;4.94;100.00
46724;BME280;32463;48.298;11.620;2023-12-22T09:43:01;95090.56;;;5.03;100.00
46724;BME280;32463;48.298;11.620;2023-12-22T09:45:51;95072.31;;;5.14;100.00
46724;BME280;32463;48.298;11.620;2023-12-22T09:48:39;95088.69;;;5.21;100.00
46724;BME280;32463;48.298;11.620;2023-12-22T09:51:27;95105.25;;;5.19;100.00
46724;BME280;32463;48.298;11.620;2023-12-22T09:54:14;95101.88;;;5.18;100.00
46724;BME280;32463;48.298;11.620;2023-12-22T09:57:02;95107.47;;;5.22;100.00
46724;BME280;32463;48.298;11.620;2023-12-22T09:59:50;95100.72;;;5.13;100.00
46724;BME280;32463;48.298;11.620;2023-12-22T10:02:41;95092.88;;;5.14;100.00
46724;BME280;32463;48.298;11.620;2023-12-22T10:05:28;95095.72;;;5.03;100.00
46724;BME280;32463;48.298;11.620;2023-12-22T10:08:18;95100.78;;;4.87;100.00
46724;BME280;32463;48.298;11.620;2023-12-22T10:11:05;95096.63;;;4.86;100.00
46724;BME280;32463;48.298;11.620;2023-12-22T10:13:55;95081.91;;;4.70;100.00
46724;BME280;32463;48.298;11.620;2023-12-22T10:16:42;95097.47;;;4.68;100.00
46724;BME280;32463;48.298;11.620;2023-12-22T10:19:28;95093.88;;;4.53;100.00
46724;BME280;32463;48.298;11.620;2023-12-22T10:22:15;95113.03;;;4.41;100.00
46724;BME280;32463;48.298;11.620;2023-12-22T10:25:03;95114.56;;;4.26;100.00
46724;BME280;32463;48.298;11.620;2023-12-22T10:27:52;95117.50;;;4.13;100.00
46724;BME280;32463;48.298;11.620;2023-12-22T10:30:40;95108.63;;;4.07;100.00
46724;BME280;32463;48.298;11.620;2023-12-22T10:33:29;95103.16;;;3.85;100.00
46724;BME280;32463;48.298;11.620;2023-12-22T10:36:16;95101.13;;;3.88;100.00
46724;BME280;32463;48.298;11.620;2023-12-22T10:39:03;95102.28;;;3.76;100.00
46724;BME280;32463;48.298;11.620;2023-12-22T10:41:50;95101.91;;;3.71;100.00
46724;BME280;32463;48.298;11.620;2023-12-22T10:44:40;95085.22;;;3.67;100.00
46724;BME280;32463;48.298;11.620;2023-12-22T10:47:28;95082.91;;;3.56;100.00
46724;BME280;32463;48.298;11.620;2023-12-22T10:50:15;95077.91;;;3.72;100.00
46724;BME280;32463;48.298;11.620;2023-12-22T10:53:05;95077.25;;;3.52;100.00
46724;BME280;32463;48.298;11.620;2023-12-22T10:55:53;95062.22;;;3.75;100.00
46724;BME280;32463;48.298;11.620;2023-12-22T10:58:39;95068.84;;;3.60;100.00
46724;BME280;32463;48.298;11.620;2023-12-22T11:01:28;95066.13;;;3.79;100.00
46724;BME280;32463;48.298;11.620;2023-12-22T11:04:18;95050.16;;;3.67;100.00
46724;BME280;32463;48.298;11.620;2023-12-22T11:07:09;95068.66;;;3.79;100.00
46724;BME280;32463;48.298;11.620;2023-12-22T11:10:02;95046.47;;;3.88;100.00
46724;BME280;32463;48.298;11.620;2023-12-22T11:12:49;95063.03;;;3.93;100.00
46724;BME280;32463;48.298;11.620;2023-12-22T11:15:39;95061.16;;;4.03;100.00
46724;BME280;32463;48.298;11.620;2023-12-22T11:18:28;95074.25;;;3.92;100.00
46724;BME280;32463;48.298;11.620;2023-12-22T11:21:15;95072.13;;;4.14;100.00
46724;BME280;32463;48.298;11.620;2023-12-22T11:24:02;95065.03;;;4.07;100.00
46724;BME280;32463;48.298;11.620;2023-12-22T11:26:51;95066.00;;;4.06;100.00
46724;BME280;32463;48.298;11.620;2023-12-22T11:29:39;95058.06;;;3.92;100.00
46724;BME280;32463;48.298;11.620;2023-12-22T11:32:28;95058.41;;;3.79;100.00
46724;BME280;32463;48.298;11.620;2023-12-22T11:35:16;95019.03;;;3.80;100.00
46724;BME280;32463;48.298;11.620;2023-12-22T11:38:05;95035.72;;;3.84;100.00
46724;BME280;32463;48.298;11.620;2023-12-22T11:40:53;95018.00;;;3.99;100.00
46724;BME280;32463;48.298;11.620;2023-12-22T11:43:40;95008.06;;;4.22;100.00
46724;BME280;32463;48.298;11.620;2023-12-22T11:46:28;95020.31;;;4.28;100.00
46724;BME280;32463;48.298;11.620;2023-12-22T11:49:16;95011.13;;;4.59;100.00
46724;BME280;32463;48.298;11.620;2023-12-22T11:52:10;95012.72;;;4.60;100.00
46724;BME280;32463;48.298;11.620;2023-12-22T11:54:56;95006.88;;;4.76;100.00
46724;BME280;32463;48.298;11.620;2023-12-22T11:57:44;94999.31;;;4.74;100.00
46724;BME280;32463;48.298;11.620;2023-12-22T12:03:23;94984.44;;;4.94;100.00
46724;BME280;32463;48.298;11.620;2023-12-22T12:09:01;94979.78;;;4.82;100.00
46724;BME280;32463;48.298;11.620;2023-12-22T12:14:41;94964.69;;;4.95;100.00
46724;BME280;32463;48.298;11.620;2023-12-22T12:17:28;94972.09;;;4.98;100.00
46724;BME280;32463;48.298;11.620;2023-12-22T12:20:16;94957.69;;;5.13;100.00
46724;BME280;32463;48.298;11.620;2023-12-22T12:23:03;94951.25;;;5.09;100.00
46724;BME280;32463;48.298;11.620;2023-12-22T12:25:50;94960.88;;;5.07;100.00
46724;BME280;32463;48.298;11.620;2023-12-22T12:28:37;94952.84;;;5.10;100.00
46724;BME280;32463;48.298;11.620;2023-12-22T12:31:35;94939.38;;;5.08;100.00
46724;BME280;32463;48.298;11.620;2023-12-22T12:34:24;94937.13;;;5.13;100.00
46724;BME280;32463;48.298;11.620;2023-12-22T12:37:11;94936.50;;;5.11;100.00
46724;BME280;32463;48.298;11.620;2023-12-22T12:39:59;94938.56;;;5.07;100.00
46724;BME280;32463;48.298;11.620;2023-12-22T12:42:47;94942.91;;;5.15;100.00
46724;BME280;32463;48.298;11.620;2023-12-22T12:45:34;94946.91;;;5.10;100.00
46724;BME280;32463;48.298;11.620;2023-12-22T12:48:21;94950.28;;;5.10;100.00
46724;BME280;32463;48.298;11.620;2023-12-22T12:51:08;94935.84;;;5.09;100.00
46724;BME280;32463;48.298;11.620;2023-12-22T12:53:55;94934.88;;;5.02;100.00
46724;BME280;32463;48.298;11.620;2023-12-22T12:56:44;94919.13;;;5.05;100.00
46724;BME280;32463;48.298;11.620;2023-12-22T12:59:31;94918.66;;;5.01;100.00
46724;BME280;32463;48.298;11.620;2023-12-22T13:02:19;94916.91;;;5.10;100.00
46724;BME280;32463;48.298;11.620;2023-12-22T13:05:06;94923.28;;;4.98;100.00
46724;BME280;32463;48.298;11.620;2023-12-22T13:08:08;94916.25;;;5.00;100.00
46724;BME280;32463;48.298;11.620;2023-12-22T13:11:00;94902.44;;;5.09;100.00
46724;BME280;32463;48.298;11.620;2023-12-22T13:13:48;94904.69;;;5.04;100.00
46724;BME280;32463;48.298;11.620;2023-12-22T13:16:35;94905.00;;;5.09;100.00
46724;BME280;32463;48.298;11.620;2023-12-22T13:19:24;94910.47;;;5.06;100.00
46724;BME280;32463;48.298;11.620;2023-12-22T13:22:11;94912.72;;;5.01;100.00
46724;BME280;32463;48.298;11.620;2023-12-22T13:24:59;94919.44;;;5.02;100.00
46724;BME280;32463;48.298;11.620;2023-12-22T13:27:47;94919.78;;;4.99;100.00
46724;BME280;32463;48.298;11.620;2023-12-22T13:30:38;94912.53;;;4.94;100.00
46724;BME280;32463;48.298;11.620;2023-12-22T13:33:26;94917.66;;;4.94;100.00
46724;BME280;32463;48.298;11.620;2023-12-22T13:36:14;94926.50;;;4.92;100.00
46724;BME280;32463;48.298;11.620;2023-12-22T13:39:01;94927.78;;;4.88;100.00
46724;BME280;32463;48.298;11.620;2023-12-22T13:41:49;94895.19;;;4.80;100.00
46724;BME280;32463;48.298;11.620;2023-12-22T13:44:44;94893.59;;;4.79;100.00
46724;BME280;32463;48.298;11.620;2023-12-22T13:47:32;94888.28;;;4.72;100.00
46724;BME280;32463;48.298;11.620;2023-12-22T13:50:19;94878.97;;;4.71;100.00
46724;BME280;32463;48.298;11.620;2023-12-22T13:53:09;94876.72;;;4.68;100.00
46724;BME280;32463;48.298;11.620;2023-12-22T13:56:00;94886.69;;;4.71;100.00
46724;BME280;32463;48.298;11.620;2023-12-22T13:58:47;94871.28;;;4.71;100.00
46724;BME280;32463;48.298;11.620;2023-12-22T14:01:34;94865.50;;;4.78;100.00
46724;BME280;32463;48.298;11.620;2023-12-22T14:04:21;94857.16;;;4.76;100.00
46724;BME280;32463;48.298;11.620;2023-12-22T14:07:08;94856.53;;;4.82;100.00
46724;BME280;32463;48.298;11.620;2023-12-22T14:09:55;94865.81;;;4.91;100.00
46724;BME280;32463;48.298;11.620;2023-12-22T14:12:42;94866.19;;;4.88;100.00
46724;BME280;32463;48.298;11.620;2023-12-22T14:15:28;94849.47;;;4.92;100.00
46724;BME280;32463;48.298;11.620;2023-12-22T14:18:15;94861.03;;;4.96;100.00
46724;BME280;32463;48.298;11.620;2023-12-22T14:21:02;94856.53;;;4.98;100.00
46724;BME280;32463;48.298;11.620;2023-12-22T14:23:50;94853.97;;;4.98;100.00
46724;BME280;32463;48.298;11.620;2023-12-22T14:26:56;94863.75;;;5.11;100.00
46724;BME280;32463;48.298;11.620;2023-12-22T14:29:43;94861.50;;;5.07;100.00
46724;BME280;32463;48.298;11.620;2023-12-22T14:32:30;94851.72;;;5.11;100.00
46724;BME280;32463;48.298;11.620;2023-12-22T14:35:17;94865.53;;;5.10;100.00
46724;BME280;32463;48.298;11.620;2023-12-22T14:38:04;94849.94;;;5.36;100.00
46724;BME280;32463;48.298;11.620;2023-12-22T14:40:50;94841.09;;;5.30;100.00
46724;BME280;32463;48.298;11.620;2023-12-22T14:43:37;94834.34;;;5.29;100.00
46724;BME280;32463;48.298;11.620;2023-12-22T14:46:24;94843.34;;;5.41;100.00
46724;BME280;32463;48.298;11.620;2023-12-22T14:49:11;94843.66;;;5.47;100.00
46724;BME280;32463;48.298;11.620;2023-12-22T14:51:58;94868.03;;;5.59;100.00